Time;durP1;ratioP1;P1;durP2;ratioP2;P2;SDS_P1;SDS_P2;PMS_P1;PMS_P2;Temp;Humidity;BMP_temperature;BMP_pressure;BME280_temperature;BME280_humidity;BME280_pressure;Samples;Min_cycle;Max_cycle;Signal;HPM_P1;HPM_P2
2021/01/10 00:02:06;;;;;;;15.02;6.40;;;0.00;99.50;;;;;;5047114;28;20056;-83
2021/01/10 00:04:32;;;;;;;16.23;5.85;;;0.00;99.40;;;;;;5039363;28;20055;-82
2021/01/10 00:06:58;;;;;;;13.98;6.43;;;-0.10;99.40;;;;;;5049896;28;20063;-82
2021/01/10 00:09:24;;;;;;;10.40;5.10;;;-0.10;99.40;;;;;;5059020;28;20056;-82
2021/01/10 00:11:49;;;;;;;14.30;6.43;;;-0.20;99.30;;;;;;5019716;28;20041;-82
2021/01/10 00:14:15;;;;;;;10.07;4.90;;;-0.20;99.30;;;;;;5043672;28;20067;-82
2021/01/10 00:16:41;;;;;;;14.70;6.65;;;-0.20;99.30;;;;;;5043211;28;20081;-83
2021/01/10 00:19:07;;;;;;;12.88;5.85;;;-0.10;99.40;;;;;;5059895;28;20040;-82
2021/01/10 00:21:37;;;;;;;12.25;5.00;;;-0.20;99.30;;;;;;5030906;28;20415;-82
2021/01/10 00:24:06;;;;;;;12.57;5.25;;;-0.20;99.30;;;;;;5046387;28;20049;-82
2021/01/10 00:26:36;;;;;;;14.65;5.88;;;-0.20;99.30;;;;;;5056265;28;20516;-82
2021/01/10 00:29:05;;;;;;;15.88;5.70;;;-0.20;99.30;;;;;;5062930;28;20033;-82
2021/01/10 00:31:32;;;;;;;12.57;5.78;;;-0.30;99.20;;;;;;5051017;28;20058;-82
2021/01/10 00:33:58;;;;;;;17.55;6.03;;;-0.30;99.20;;;;;;5052582;28;20157;-82
2021/01/10 00:36:40;;;;;;;18.13;5.72;;;-0.30;99.20;;;;;;5061286;28;20449;-82
2021/01/10 00:39:06;;;;;;;10.27;5.70;;;-0.40;99.20;;;;;;5061347;28;20075;-82
2021/01/10 00:41:39;;;;;;;15.77;6.38;;;-0.40;99.20;;;;;;5062488;28;20056;-82
2021/01/10 00:44:06;;;;;;;17.88;6.78;;;-0.50;99.20;;;;;;5045900;28;20409;-83
2021/01/10 00:46:32;;;;;;;17.42;6.43;;;-0.50;99.20;;;;;;5061741;28;20569;-83
2021/01/10 00:48:59;;;;;;;13.95;6.07;;;-0.50;99.20;;;;;;5029566;28;20072;-82
2021/01/10 00:51:25;;;;;;;13.00;6.57;;;-0.50;99.10;;;;;;5064244;28;20124;-82
2021/01/10 00:53:51;;;;;;;20.77;10.05;;;-0.50;99.10;;;;;;5053862;28;20132;-82
2021/01/10 00:56:17;;;;;;;22.20;8.65;;;-0.60;99.10;;;;;;5062686;28;20037;-83
2021/01/10 00:58:42;;;;;;;18.08;7.82;;;-0.50;99.10;;;;;;5038526;28;20051;-83
2021/01/10 01:01:09;;;;;;;12.77;6.57;;;-0.60;99.10;;;;;;5055207;28;20370;-82
2021/01/10 01:03:35;;;;;;;12.93;7.03;;;-0.50;99.20;;;;;;5034791;28;20044;-83
2021/01/10 01:06:00;;;;;;;14.18;5.60;;;-0.50;99.20;;;;;;5059588;28;20048;-83
2021/01/10 01:08:26;;;;;;;14.02;7.50;;;-0.50;99.10;;;;;;5057948;28;20059;-83
2021/01/10 01:10:52;;;;;;;14.63;6.20;;;-0.60;99.10;;;;;;5060569;28;20045;-82
2021/01/10 01:13:18;;;;;;;15.82;6.05;;;-0.60;99.10;;;;;;5056057;28;20154;-82
2021/01/10 01:15:44;;;;;;;17.67;7.68;;;-0.60;99.10;;;;;;5060644;28;20048;-82
2021/01/10 01:18:10;;;;;;;15.75;7.05;;;-0.70;99.10;;;;;;5049483;28;20127;-82
2021/01/10 01:20:36;;;;;;;12.05;5.45;;;-0.70;99.10;;;;;;5044837;28;20205;-82
2021/01/10 01:23:03;;;;;;;10.60;6.35;;;-0.70;99.10;;;;;;5058018;28;20056;-82
2021/01/10 01:25:29;;;;;;;15.85;7.45;;;-0.80;99.00;;;;;;5052447;28;20132;-82
2021/01/10 01:27:55;;;;;;;13.95;5.97;;;-0.80;99.00;;;;;;5066468;28;20554;-82
2021/01/10 01:30:21;;;;;;;14.23;7.43;;;-0.80;99.10;;;;;;5039805;28;20053;-83
2021/01/10 01:32:47;;;;;;;20.48;7.60;;;-0.80;99.10;;;;;;5064631;28;20044;-83
2021/01/10 01:35:12;;;;;;;20.92;7.00;;;-0.80;99.10;;;;;;5054601;28;20476;-83
2021/01/10 01:37:40;;;;;;;14.23;6.18;;;-0.70;99.20;;;;;;5069794;28;20025;-83
2021/01/10 01:40:08;;;;;;;14.88;6.50;;;-0.70;99.20;;;;;;5060439;28;20856;-83
2021/01/10 01:42:33;;;;;;;17.25;6.93;;;-0.80;99.20;;;;;;5057684;28;20040;-83
2021/01/10 01:45:01;;;;;;;19.98;6.43;;;-0.80;99.20;;;;;;5037456;28;20061;-84
2021/01/10 01:47:27;;;;;;;13.95;6.30;;;-0.90;99.10;;;;;;5066217;28;20370;-83
2021/01/10 01:49:53;;;;;;;13.50;5.60;;;-0.90;99.10;;;;;;5045067;28;20072;-83
2021/01/10 01:52:19;;;;;;;13.25;5.90;;;-0.80;99.20;;;;;;5038214;28;20437;-83
2021/01/10 01:54:48;;;;;;;13.32;6.13;;;-0.90;99.10;;;;;;5064363;28;20136;-84
2021/01/10 01:57:13;;;;;;;15.27;6.65;;;-0.90;99.10;;;;;;5066692;28;20116;-83
2021/01/10 01:59:39;;;;;;;16.35;5.45;;;-1.00;99.10;;;;;;5060482;28;20111;-83
2021/01/10 02:02:06;;;;;;;13.50;5.80;;;-1.00;99.10;;;;;;5035854;28;20052;-83
2021/01/10 02:04:43;;;;;;;17.02;5.13;;;-1.00;99.40;;;;;;5051136;28;20041;-83
2021/01/10 02:07:41;;;;;;;16.15;6.18;;;-1.00;99.20;;;;;;5061480;28;20517;-83
2021/01/10 02:10:12;;;;;;;15.23;5.18;;;-1.00;99.20;;;;;;5047330;28;20045;-83
2021/01/10 02:12:51;;;;;;;12.13;5.10;;;-1.00;99.50;;;;;;5049436;28;20048;-83
2021/01/10 02:15:22;;;;;;;15.05;5.88;;;-1.00;99.20;;;;;;5056465;28;20064;-83
2021/01/10 02:17:51;;;;;;;11.52;5.47;;;-1.10;99.20;;;;;;5045670;28;20121;-83
2021/01/10 02:20:30;;;;;;;13.20;4.93;;;-1.10;99.20;;;;;;5053468;28;20484;-84
2021/01/10 02:23:24;;;;;;;12.50;5.10;;;-1.10;99.20;;;;;;5044464;28;20057;-83
2021/01/10 02:25:51;;;;;;;13.98;5.40;;;-1.10;99.20;;;;;;4965947;28;20399;-83
2021/01/10 02:28:23;;;;;;;8.30;4.43;;;-1.20;99.20;;;;;;4948688;28;20134;-83
2021/01/10 02:30:51;;;;;;;15.38;5.88;;;-1.20;99.30;;;;;;4978122;28;20149;-83
2021/01/10 02:33:30;;;;;;;12.23;4.97;;;-1.20;99.30;;;;;;4954772;28;20058;-83
2021/01/10 02:35:57;;;;;;;13.45;5.38;;;-1.10;99.30;;;;;;4941054;28;20195;-83
2021/01/10 02:38:41;;;;;;;14.15;5.00;;;-1.10;99.40;;;;;;4950195;28;20614;-83
2021/01/10 02:41:40;;;;;;;13.75;4.38;;;-1.10;99.40;;;;;;4969099;28;20042;-83
2021/01/10 02:44:20;;;;;;;12.20;4.65;;;-1.10;99.40;;;;;;4971126;28;20059;-83
2021/01/10 02:46:50;;;;;;;13.27;4.80;;;-1.10;99.40;;;;;;4955553;28;20475;-83
2021/01/10 02:49:18;;;;;;;9.25;4.38;;;-1.10;99.50;;;;;;4967673;28;20129;-83
2021/01/10 02:51:44;;;;;;;15.10;5.88;;;-1.10;99.50;;;;;;4955010;28;20043;-83
2021/01/10 02:54:12;;;;;;;12.45;4.10;;;-1.10;99.50;;;;;;4962499;28;20653;-83
2021/01/10 02:56:45;;;;;;;15.77;5.20;;;-1.10;99.50;;;;;;4969795;28;20150;-83
2021/01/10 02:59:15;;;;;;;16.42;4.80;;;-1.10;99.60;;;;;;4964487;28;20080;-83
2021/01/10 03:01:43;;;;;;;11.90;4.75;;;-1.10;99.60;;;;;;4953432;28;20663;-83
2021/01/10 03:04:10;;;;;;;13.43;4.18;;;-0.90;99.70;;;;;;5049413;28;20048;-84
2021/01/10 03:06:36;;;;;;;13.32;3.75;;;-1.00;99.60;;;;;;5047234;28;20036;-83
2021/01/10 03:09:02;;;;;;;11.27;4.30;;;-1.10;99.60;;;;;;5042445;28;20178;-83
2021/01/10 03:11:28;;;;;;;12.85;3.88;;;-1.10;99.60;;;;;;5044350;28;20048;-83
2021/01/10 03:13:53;;;;;;;10.70;4.50;;;-1.10;99.60;;;;;;5029475;28;20049;-83
2021/01/10 03:16:20;;;;;;;10.45;4.30;;;-1.10;99.60;;;;;;5046417;28;20072;-83
2021/01/10 03:18:46;;;;;;;9.93;3.58;;;-1.10;99.60;;;;;;5045868;28;20040;-83
2021/01/10 03:21:12;;;;;;;11.20;3.88;;;-1.10;99.60;;;;;;5041549;28;20504;-83
2021/01/10 03:23:38;;;;;;;13.85;4.35;;;-1.10;99.60;;;;;;5050811;28;20044;-83
2021/01/10 03:26:04;;;;;;;12.45;4.40;;;-1.20;99.60;;;;;;5041944;28;20033;-83
2021/01/10 03:28:30;;;;;;;9.73;3.90;;;-1.20;99.60;;;;;;5043151;28;20041;-83
2021/01/10 03:30:56;;;;;;;13.05;4.10;;;-1.20;99.60;;;;;;5040337;28;20127;-83
2021/01/10 03:33:21;;;;;;;11.80;4.07;;;-1.30;99.50;;;;;;5043217;28;20106;-83
2021/01/10 03:35:47;;;;;;;11.68;3.67;;;-1.30;99.50;;;;;;5034114;28;20049;-84
2021/01/10 03:38:13;;;;;;;12.93;3.88;;;-1.30;99.50;;;;;;5042244;28;20052;-84
2021/01/10 03:40:38;;;;;;;9.25;3.42;;;-1.30;99.60;;;;;;5053942;28;20040;-83
2021/01/10 03:43:04;;;;;;;11.13;3.60;;;-1.40;99.50;;;;;;5055998;28;20102;-83
2021/01/10 03:45:30;;;;;;;8.07;2.67;;;-1.40;99.50;;;;;;5058279;28;20070;-84
2021/01/10 03:47:56;;;;;;;11.48;3.90;;;-1.40;99.50;;;;;;5064184;28;20424;-83
2021/01/10 03:50:21;;;;;;;9.27;3.22;;;-1.50;99.50;;;;;;5037611;28;20114;-84
2021/01/10 03:52:47;;;;;;;10.85;3.65;;;-1.50;99.50;;;;;;5048361;28;20174;-83
2021/01/10 03:55:13;;;;;;;13.80;3.65;;;-1.50;99.50;;;;;;5048185;28;20051;-83
2021/01/10 03:57:39;;;;;;;13.07;3.03;;;-1.50;99.50;;;;;;5056844;28;20060;-83
2021/01/10 04:00:10;;;;;;;9.20;3.40;;;-1.60;99.40;;;;;;5043466;28;20035;-83
2021/01/10 04:02:36;;;;;;;11.60;3.45;;;-1.60;99.50;;;;;;5051769;28;20056;-83
2021/01/10 04:05:03;;;;;;;11.63;3.83;;;-1.60;99.50;;;;;;5046725;28;20048;-83
2021/01/10 04:07:29;;;;;;;8.88;3.33;;;-1.60;99.50;;;;;;5060960;28;20115;-83
2021/01/10 04:10:05;;;;;;;11.63;3.20;;;-1.60;99.50;;;;;;5052692;28;20068;-83
2021/01/10 04:12:32;;;;;;;9.88;3.25;;;-1.60;99.50;;;;;;5043867;28;20068;-83
2021/01/10 04:14:57;;;;;;;12.98;4.22;;;-1.70;99.50;;;;;;5041081;28;20061;-84
2021/01/10 04:17:26;;;;;;;9.25;3.47;;;-1.70;99.50;;;;;;5056127;28;20048;-85
2021/01/10 04:19:53;;;;;;;12.57;3.97;;;-1.70;99.50;;;;;;5057344;28;20052;-84
2021/01/10 04:22:19;;;;;;;8.95;3.60;;;-1.70;99.50;;;;;;5042052;28;20089;-84
2021/01/10 04:24:45;;;;;;;13.32;4.32;;;-1.70;99.50;;;;;;5060600;28;20059;-84
2021/01/10 04:27:11;;;;;;;7.57;3.72;;;-1.70;99.60;;;;;;5058284;28;20044;-84
2021/01/10 04:29:37;;;;;;;9.13;4.20;;;-1.70;99.60;;;;;;5031238;28;20489;-84
2021/01/10 04:32:03;;;;;;;8.65;3.38;;;-1.60;99.60;;;;;;5041863;28;20068;-84
2021/01/10 04:34:29;;;;;;;14.32;4.00;;;-1.60;99.60;;;;;;5051502;28;20487;-84
2021/01/10 04:36:54;;;;;;;10.63;3.58;;;-1.60;99.70;;;;;;5017452;28;20045;-84
2021/01/10 04:39:20;;;;;;;11.55;4.20;;;-1.60;99.70;;;;;;5046219;28;20033;-84
2021/01/10 04:41:46;;;;;;;12.55;4.07;;;-1.70;99.60;;;;;;5044467;28;20037;-84
2021/01/10 04:44:13;;;;;;;8.07;3.33;;;-1.60;99.70;;;;;;5048149;28;20127;-84
2021/01/10 04:46:39;;;;;;;9.10;3.88;;;-1.60;99.70;;;;;;5045503;28;20047;-83
2021/01/10 04:49:05;;;;;;;9.30;3.80;;;-1.60;99.70;;;;;;5053675;28;20044;-84
2021/01/10 04:51:33;;;;;;;10.35;3.70;;;-1.60;99.70;;;;;;5052764;28;20024;-84
2021/01/10 04:54:01;;;;;;;9.55;3.42;;;-1.60;99.70;;;;;;5037791;28;20477;-84
2021/01/10 04:56:29;;;;;;;14.50;3.83;;;-1.60;99.70;;;;;;5067128;28;20029;-84
2021/01/10 04:58:59;;;;;;;9.25;3.38;;;-1.60;99.70;;;;;;5027279;28;20572;-84
2021/01/10 05:01:29;;;;;;;10.10;3.83;;;-1.60;99.70;;;;;;5065078;28;20559;-84
2021/01/10 05:03:55;;;;;;;11.68;3.67;;;-1.60;99.70;;;;;;5020737;28;20120;-84
2021/01/10 05:06:22;;;;;;;7.68;3.15;;;-1.60;99.70;;;;;;5030353;28;20343;-84
2021/01/10 05:08:50;;;;;;;11.65;3.55;;;-1.60;99.60;;;;;;5045803;28;20120;-84
2021/01/10 05:11:31;;;;;;;8.88;3.95;;;-1.60;99.60;;;;;;5071757;28;20033;-84
2021/01/10 05:13:57;;;;;;;10.15;3.78;;;-1.70;99.60;;;;;;5055500;28;20047;-84
2021/01/10 05:16:23;;;;;;;9.10;3.90;;;-1.70;99.60;;;;;;5038316;28;20052;-84
2021/01/10 05:18:54;;;;;;;10.77;4.38;;;-1.70;99.60;;;;;;5062311;28;20048;-83
2021/01/10 05:21:23;;;;;;;10.80;3.83;;;-1.70;99.60;;;;;;5058267;28;20036;-83
2021/01/10 05:23:55;;;;;;;9.70;4.72;;;-1.70;99.60;;;;;;5062458;28;20045;-83
2021/01/10 05:26:22;;;;;;;17.17;5.10;;;-1.80;99.60;;;;;;5049444;28;20041;-83
2021/01/10 05:28:50;;;;;;;12.35;5.25;;;-1.80;99.60;;;;;;5041437;28;20082;-83
2021/01/10 05:31:35;;;;;;;11.77;5.60;;;-1.80;99.60;;;;;;5041763;28;20091;-83
2021/01/10 05:34:01;;;;;;;13.65;4.85;;;-1.70;99.60;;;;;;5055821;28;20457;-83
2021/01/10 05:36:29;;;;;;;13.23;4.45;;;-1.80;99.60;;;;;;5037628;28;20075;-83
2021/01/10 05:38:56;;;;;;;18.27;5.95;;;-1.80;99.60;;;;;;5042831;28;20043;-84
2021/01/10 05:41:23;;;;;;;13.70;4.57;;;-1.80;99.60;;;;;;5042633;28;20059;-83
2021/01/10 05:44:00;;;;;;;11.32;4.40;;;-1.80;99.60;;;;;;5049924;28;20122;-84
2021/01/10 05:46:30;;;;;;;11.05;4.97;;;-1.90;99.50;;;;;;5053557;28;20044;-83
2021/01/10 05:48:57;;;;;;;13.02;6.03;;;-1.90;99.60;;;;;;5046941;28;20033;-83
2021/01/10 05:51:30;;;;;;;14.23;5.60;;;-1.90;99.50;;;;;;5050047;28;20033;-83
2021/01/10 05:53:57;;;;;;;16.05;6.60;;;-1.90;99.50;;;;;;5063044;28;20081;-84
2021/01/10 05:56:23;;;;;;;11.48;5.97;;;-1.90;99.50;;;;;;5042788;28;20062;-83
2021/01/10 05:58:59;;;;;;;11.90;5.53;;;-1.90;99.50;;;;;;5062354;28;20029;-83
2021/01/10 06:01:25;;;;;;;9.38;5.10;;;-1.90;99.60;;;;;;5044622;28;20057;-83
2021/01/10 06:03:52;;;;;;;14.65;6.32;;;-2.00;99.50;;;;;;5042518;28;20079;-83
2021/01/10 06:06:18;;;;;;;12.98;5.43;;;-2.00;99.50;;;;;;5038408;28;20178;-83
2021/01/10 06:08:45;;;;;;;14.18;5.63;;;-2.00;99.50;;;;;;5051249;28;20048;-83
2021/01/10 06:11:20;;;;;;;12.82;6.90;;;-2.00;99.50;;;;;;5059059;28;20052;-84
2021/01/10 06:13:53;;;;;;;10.60;6.30;;;-2.00;99.50;;;;;;5047120;28;20040;-83
2021/01/10 06:16:21;;;;;;;19.48;8.55;;;-2.00;99.50;;;;;;5048635;28;20044;-83
2021/01/10 06:19:08;;;;;;;16.00;6.57;;;-2.00;99.50;;;;;;5066340;28;20085;-83
2021/01/10 06:21:34;;;;;;;15.82;8.45;;;-2.00;99.60;;;;;;5031236;28;20360;-83
2021/01/10 06:24:02;;;;;;;18.85;8.50;;;-2.10;99.50;;;;;;5064842;28;20044;-83
2021/01/10 06:26:44;;;;;;;14.30;5.72;;;-2.00;99.60;;;;;;5058938;28;20404;-83
2021/01/10 06:29:13;;;;;;;18.73;9.00;;;-2.00;99.60;;;;;;5043153;28;20055;-83
2021/01/10 06:31:46;;;;;;;14.15;9.00;;;-2.00;99.60;;;;;;5059413;28;20044;-82
2021/01/10 06:34:12;;;;;;;17.05;8.50;;;-1.90;99.60;;;;;;5061709;28;20132;-81
2021/01/10 06:36:41;;;;;;;13.68;7.53;;;-2.00;99.60;;;;;;5033643;28;20048;-83
2021/01/10 06:39:12;;;;;;;20.35;7.60;;;-1.90;99.60;;;;;;5052319;28;20047;-83
2021/01/10 06:42:15;;;;;;;25.92;10.57;;;-1.90;99.60;;;;;;5046485;28;20041;-82
2021/01/10 06:44:45;;;;;;;16.00;7.65;;;-1.90;99.60;;;;;;4989520;28;20042;-82
2021/01/10 06:47:29;;;;;;;17.55;8.18;;;-1.90;99.60;;;;;;4965551;28;20065;-83
2021/01/10 06:49:55;;;;;;;14.55;10.02;;;-1.90;99.70;;;;;;4987862;28;20121;-82
2021/01/10 06:52:24;;;;;;;18.00;9.50;;;-1.90;99.70;;;;;;4984853;28;20466;-82
2021/01/10 06:54:50;;;;;;;14.02;8.70;;;-1.90;99.60;;;;;;4989022;28;20125;-82
2021/01/10 06:57:16;;;;;;;19.90;10.15;;;-1.90;99.60;;;;;;4981646;28;20235;-82
2021/01/10 07:00:03;;;;;;;21.38;11.40;;;-1.90;99.60;;;;;;4987020;28;20086;-82
2021/01/10 07:02:29;;;;;;;13.82;8.75;;;-1.90;99.60;;;;;;4983896;28;20070;-82
2021/01/10 07:04:56;;;;;;;21.85;11.73;;;-1.90;99.60;;;;;;4989608;28;20055;-82
2021/01/10 07:07:32;;;;;;;26.73;12.68;;;-1.90;99.60;;;;;;4983313;28;20107;-82
2021/01/10 07:09:58;;;;;;;21.38;10.00;;;-1.90;99.60;;;;;;4986799;28;20129;-82
2021/01/10 07:12:24;;;;;;;21.38;12.45;;;-1.90;99.60;;;;;;4982924;28;20058;-82
2021/01/10 07:14:50;;;;;;;22.35;12.68;;;-1.80;99.60;;;;;;4990512;28;20389;-82
2021/01/10 07:17:17;;;;;;;26.52;12.02;;;-1.90;99.60;;;;;;4973103;28;20058;-84
2021/01/10 07:19:46;;;;;;;30.58;18.35;;;-1.90;99.60;;;;;;5042392;28;20062;-84
2021/01/10 07:22:24;;;;;;;28.35;16.33;;;-1.90;99.60;;;;;;5048432;28;20062;-85
2021/01/10 07:24:50;;;;;;;21.85;13.32;;;-1.80;99.60;;;;;;5032016;28;20057;-85
2021/01/10 07:27:30;;;;;;;28.73;18.45;;;-1.70;99.60;;;;;;5047630;28;20124;-84
2021/01/10 07:29:56;;;;;;;25.13;14.73;;;-1.80;99.60;;;;;;5060456;28;20055;-85
2021/01/10 07:32:34;;;;;;;29.45;16.48;;;-1.80;99.60;;;;;;5047711;28;20052;-84
2021/01/10 07:35:04;;;;;;;31.02;16.70;;;-1.80;99.60;;;;;;5048836;28;20033;-83
2021/01/10 07:37:30;;;;;;;27.50;17.30;;;-1.70;99.60;;;;;;5033068;28;20363;-83
2021/01/10 07:39:57;;;;;;;32.75;18.83;;;-1.70;99.60;;;;;;5053636;28;20049;-84
2021/01/10 07:42:34;;;;;;;29.75;19.90;;;-1.70;99.60;;;;;;5063550;28;20043;-84
2021/01/10 07:45:00;;;;;;;32.28;20.30;;;-1.60;99.60;;;;;;5035324;28;20055;-84
2021/01/10 07:47:32;;;;;;;40.95;27.63;;;-1.60;99.60;;;;;;5060955;28;20076;-84
2021/01/10 07:50:10;;;;;;;34.90;20.58;;;-1.50;99.60;;;;;;5041210;28;20053;-84
2021/01/10 07:52:42;;;;;;;34.72;19.58;;;-1.50;99.60;;;;;;5035652;28;20049;-84
2021/01/10 07:55:20;;;;;;;35.92;20.77;;;-1.50;99.60;;;;;;5047369;28;20049;-84
2021/01/10 07:58:01;;;;;;;31.15;20.08;;;-1.40;99.70;;;;;;5037619;28;20056;-84
2021/01/10 08:00:34;;;;;;;32.65;20.63;;;-1.40;99.60;;;;;;5058736;28;20041;-83
2021/01/10 08:03:07;;;;;;;33.33;18.63;;;-1.40;99.70;;;;;;5058612;28;20053;-84
2021/01/10 08:05:38;;;;;;;33.25;21.45;;;-1.30;99.70;;;;;;5042130;28;20032;-84
2021/01/10 08:08:13;;;;;;;39.47;21.42;;;-1.30;99.90;;;;;;5062630;28;20037;-84
2021/01/10 08:10:49;;;;;;;;;;;-1.30;99.70;;;;;;5051703;28;20045;-84
2021/01/10 08:13:34;;;;;;;36.35;19.92;;;-1.30;99.60;;;;;;5045142;28;20353;-83
2021/01/10 08:16:06;;;;;;;32.05;20.10;;;-1.30;99.70;;;;;;5038376;28;20106;-84
2021/01/10 08:18:43;;;;;;;43.05;26.50;;;-1.20;99.80;;;;;;5050035;28;20052;-84
2021/01/10 08:21:11;;;;;;;43.13;27.27;;;-1.10;99.70;;;;;;5056790;28;20049;-84
2021/01/10 08:23:38;;;;;;;37.15;24.20;;;-1.10;99.70;;;;;;5040932;28;20156;-84
2021/01/10 08:26:11;;;;;;;40.60;25.65;;;-1.00;99.80;;;;;;5041882;28;20110;-84
2021/01/10 08:28:54;;;;;;;40.83;26.33;;;-1.00;99.70;;;;;;5028336;28;20040;-83
2021/01/10 08:31:23;;;;;;;37.97;21.55;;;-0.90;99.80;;;;;;5062239;28;20412;-83
2021/01/10 08:34:04;;;;;;;41.00;24.17;;;-0.80;99.90;;;;;;5023071;28;20049;-83
2021/01/10 08:36:30;;;;;;;43.22;26.05;;;-0.70;99.90;;;;;;5051704;28;20068;-83
2021/01/10 08:39:01;;;;;;;37.40;24.25;;;-0.70;99.90;;;;;;5061301;28;20080;-83
2021/01/10 08:41:31;;;;;;;37.63;26.45;;;-0.60;99.90;;;;;;5037074;28;20048;-83
2021/01/10 08:44:01;;;;;;;41.22;26.45;;;-0.50;99.90;;;;;;5024884;28;20063;-83
2021/01/10 08:46:29;;;;;;;37.33;25.63;;;-0.50;99.90;;;;;;5046259;28;20484;-84
2021/01/10 08:48:55;;;;;;;44.83;27.40;;;-0.30;99.90;;;;;;5058723;28;20056;-83
2021/01/10 08:51:38;;;;;;;41.90;25.70;;;-0.30;99.90;;;;;;5060163;28;20048;-83
2021/01/10 08:54:09;;;;;;;42.63;27.85;;;-0.20;99.90;;;;;;5053260;28;20040;-83
2021/01/10 08:56:35;;;;;;;42.08;25.42;;;-0.10;99.90;;;;;;5055710;28;20436;-83
2021/01/10 08:59:01;;;;;;;34.35;24.65;;;-0.10;99.90;;;;;;5060330;28;20036;-85
2021/01/10 09:01:28;;;;;;;33.28;22.23;;;0.00;99.90;;;;;;5041166;28;20045;-84
2021/01/10 09:04:04;;;;;;;30.70;20.63;;;0.10;99.90;;;;;;5042812;28;20078;-84
2021/01/10 09:06:49;;;;;;;37.63;24.23;;;0.20;99.90;;;;;;5049085;28;20059;-84
2021/01/10 09:09:43;;;;;;;39.45;24.15;;;0.30;99.90;;;;;;5049548;28;20132;-84
2021/01/10 09:12:14;;;;;;;40.55;24.83;;;0.30;99.90;;;;;;5048762;28;20063;-84
2021/01/10 09:14:46;;;;;;;36.50;23.35;;;0.40;99.90;;;;;;5049269;28;20068;-84
2021/01/10 09:17:16;;;;;;;40.70;23.08;;;0.40;99.90;;;;;;5054343;28;20058;-84
2021/01/10 09:19:43;;;;;;;26.48;17.98;;;0.40;99.90;;;;;;5055961;28;20103;-83
2021/01/10 09:22:09;;;;;;;32.72;18.92;;;0.40;99.90;;;;;;5043799;28;20048;-85
2021/01/10 09:24:40;;;;;;;26.42;17.88;;;0.60;99.90;;;;;;5052610;28;20123;-84
2021/01/10 09:27:10;;;;;;;31.33;19.27;;;0.60;99.90;;;;;;5063548;28;20337;-83
2021/01/10 09:29:39;;;;;;;24.73;16.23;;;0.60;99.90;;;;;;5049079;28;20075;-82
2021/01/10 09:32:06;;;;;;;21.33;15.38;;;0.60;99.90;;;;;;5055142;28;20053;-83
2021/01/10 09:34:32;;;;;;;22.38;15.98;;;0.70;99.90;;;;;;5061371;28;20045;-83
2021/01/10 09:37:09;;;;;;;26.65;16.85;;;0.80;99.90;;;;;;5063720;28;20094;-83
2021/01/10 09:39:42;;;;;;;31.73;20.52;;;0.80;99.90;;;;;;5058485;28;20036;-82
2021/01/10 09:42:10;;;;;;;25.40;17.92;;;0.80;99.90;;;;;;5072482;28;20040;-85
2021/01/10 09:44:36;;;;;;;25.80;16.15;;;0.90;99.90;;;;;;5039635;28;20479;-83
2021/01/10 09:47:02;;;;;;;20.05;13.32;;;0.90;99.90;;;;;;5046235;28;20066;-84
2021/01/10 09:49:34;;;;;;;23.85;14.90;;;0.90;99.90;;;;;;5058006;28;20257;-84
2021/01/10 09:52:05;;;;;;;27.50;15.57;;;0.90;99.90;;;;;;5055622;28;20190;-88
2021/01/10 09:54:35;;;;;;;21.90;13.77;;;1.00;99.90;;;;;;5030192;28;20141;-84
2021/01/10 09:57:22;;;;;;;18.17;13.45;;;1.00;99.90;;;;;;5043473;28;20082;-83
2021/01/10 09:59:54;;;;;;;18.77;13.43;;;1.00;99.90;;;;;;5054446;28;20060;-81
2021/01/10 10:02:25;;;;;;;23.23;11.00;;;1.10;99.90;;;;;;5012504;28;20158;-80
2021/01/10 10:04:54;;;;;;;22.60;15.65;;;1.10;99.90;;;;;;4986798;28;20088;-81
2021/01/10 10:07:43;;;;;;;17.20;10.95;;;1.20;99.90;;;;;;5013852;28;20080;-85
2021/01/10 10:10:19;;;;;;;17.60;12.52;;;1.20;99.70;;;;;;5004138;28;20133;-83
2021/01/10 10:12:59;;;;;;;25.65;15.18;;;1.30;99.80;;;;;;5005474;28;20380;-83
2021/01/10 10:15:55;;;;;;;22.30;13.82;;;1.30;99.70;;;;;;5001722;28;20042;-85
2021/01/10 10:18:35;;;;;;;17.58;12.30;;;1.40;99.70;;;;;;4991077;28;20073;-85
2021/01/10 10:21:05;;;;;;;26.15;15.38;;;1.50;99.50;;;;;;5021255;28;20092;-86
2021/01/10 10:23:35;;;;;;;19.77;12.27;;;1.50;99.50;;;;;;5009479;28;20057;-86
2021/01/10 10:26:08;;;;;;;23.48;12.63;;;1.70;99.50;;;;;;4984816;28;20455;-87
2021/01/10 10:28:36;;;;;;;23.77;12.35;;;1.80;99.50;;;;;;5001459;28;20045;-87
2021/01/10 10:31:03;;;;;;;18.27;12.85;;;1.80;99.30;;;;;;5004655;28;20053;-87
2021/01/10 10:33:42;;;;;;;21.60;12.90;;;1.90;99.00;;;;;;5001352;28;20146;-87
2021/01/10 10:36:11;;;;;;;18.95;13.98;;;2.00;98.80;;;;;;5019765;28;20378;-86
2021/01/10 10:38:38;;;;;;;14.95;11.95;;;2.10;98.80;;;;;;5012522;28;20077;-86
2021/01/10 10:41:09;;;;;;;24.98;15.57;;;2.10;98.70;;;;;;5004044;28;20076;-88
2021/01/10 10:43:38;;;;;;;20.58;12.57;;;2.20;98.70;;;;;;5002877;28;20085;-84
2021/01/10 10:46:04;;;;;;;20.60;13.93;;;2.20;98.60;;;;;;4978998;28;20100;-83
2021/01/10 10:48:33;;;;;;;14.55;11.25;;;2.20;98.50;;;;;;5003037;28;20049;-81
2021/01/10 10:51:03;;;;;;;22.55;15.88;;;2.20;98.40;;;;;;4996740;28;20060;-85
2021/01/10 10:53:32;;;;;;;18.80;13.57;;;2.20;98.40;;;;;;5009977;28;20042;-83
2021/01/10 10:55:58;;;;;;;17.92;12.40;;;2.20;98.40;;;;;;4999395;28;20033;-82
2021/01/10 10:58:29;;;;;;;16.00;11.95;;;2.20;98.40;;;;;;5021619;28;20034;-82
2021/01/10 11:00:59;;;;;;;19.42;12.90;;;2.30;98.40;;;;;;5000706;28;20052;-83
2021/01/10 11:03:26;;;;;;;22.63;17.88;;;2.40;98.20;;;;;;4977698;28;20046;-84
2021/01/10 11:06:12;;;;;;;22.33;15.18;;;2.30;98.40;;;;;;4993316;28;20065;-85
2021/01/10 11:08:39;;;;;;;15.52;11.25;;;2.40;98.60;;;;;;4975917;28;20137;-85
2021/01/10 11:11:12;;;;;;;19.58;13.45;;;2.50;98.10;;;;;;5009418;28;20108;-84
2021/01/10 11:13:37;;;;;;;26.48;17.77;;;2.50;98.00;;;;;;4983703;28;20049;-85
2021/01/10 11:16:03;;;;;;;29.55;18.27;;;2.50;98.00;;;;;;5009481;28;20068;-85
2021/01/10 11:18:29;;;;;;;20.88;15.32;;;2.60;98.10;;;;;;4989150;28;20064;-83
2021/01/10 11:20:55;;;;;;;15.80;12.23;;;2.70;98.10;;;;;;5009955;28;20394;-82
2021/01/10 11:23:20;;;;;;;18.65;14.45;;;2.70;97.90;;;;;;5007503;28;20584;-82
2021/01/10 11:25:46;;;;;;;19.67;14.10;;;2.80;97.40;;;;;;4984665;28;20061;-82
2021/01/10 11:28:13;;;;;;;18.33;13.90;;;2.70;97.60;;;;;;4998944;28;20057;-80
2021/01/10 11:30:39;;;;;;;17.48;14.50;;;2.70;97.60;;;;;;4990131;28;20136;-80
2021/01/10 11:33:08;;;;;;;21.08;14.20;;;2.80;97.40;;;;;;5004953;28;20096;-84
2021/01/10 11:35:41;;;;;;;21.77;15.80;;;2.80;97.50;;;;;;4988547;28;20034;-83
2021/01/10 11:38:16;;;;;;;21.15;14.75;;;2.90;97.40;;;;;;4982329;28;20054;-85
2021/01/10 11:40:45;;;;;;;15.32;13.35;;;3.00;97.00;;;;;;4976250;28;20053;-85
2021/01/10 11:43:12;;;;;;;19.92;13.23;;;3.10;97.20;;;;;;4971120;28;20112;-85
2021/01/10 11:45:39;;;;;;;18.80;13.13;;;3.30;96.70;;;;;;4988420;28;20341;-84
2021/01/10 11:48:08;;;;;;;17.05;12.65;;;3.30;96.40;;;;;;4968399;28;20114;-86
2021/01/10 11:50:44;;;;;;;20.15;12.35;;;3.40;96.50;;;;;;4976841;28;20514;-84
2021/01/10 11:53:15;;;;;;;23.85;14.75;;;3.40;96.40;;;;;;4985877;28;20478;-85
2021/01/10 11:55:44;;;;;;;22.10;14.32;;;3.50;96.30;;;;;;4991308;28;20128;-83
2021/01/10 11:58:13;;;;;;;23.90;14.98;;;3.50;96.70;;;;;;4964856;28;20415;-84
2021/01/10 12:00:44;;;;;;;17.05;12.57;;;3.50;96.40;;;;;;4972578;28;20073;-85
2021/01/10 12:03:15;;;;;;;16.60;11.93;;;3.40;96.10;;;;;;5007536;28;20048;-84
2021/01/10 12:05:48;;;;;;;21.33;13.25;;;3.50;96.00;;;;;;4980219;28;20810;-81
2021/01/10 12:08:15;;;;;;;22.80;15.35;;;3.40;96.00;;;;;;4989166;28;20061;-85
2021/01/10 12:10:50;;;;;;;16.70;13.38;;;3.50;96.40;;;;;;4965106;28;20062;-81
2021/01/10 12:13:22;;;;;;;19.20;14.15;;;3.50;96.30;;;;;;5009310;28;20573;-83
2021/01/10 12:15:58;;;;;;;21.80;14.57;;;3.40;96.20;;;;;;4986148;28;20462;-83
2021/01/10 12:18:32;;;;;;;18.13;13.90;;;3.40;96.20;;;;;;4990107;28;20073;-83
2021/01/10 12:21:04;;;;;;;22.45;15.90;;;3.40;96.40;;;;;;4986331;28;20052;-82
2021/01/10 12:23:33;;;;;;;19.40;14.18;;;3.50;96.30;;;;;;5005859;28;20050;-82
2021/01/10 12:26:33;;;;;;;19.17;15.40;;;3.40;96.30;;;;;;4986580;28;20470;-82
2021/01/10 12:29:04;;;;;;;19.95;14.50;;;3.50;96.30;;;;;;4991357;28;20038;-83
2021/01/10 12:31:39;;;;;;;17.70;14.57;;;3.50;96.30;;;;;;5003560;28;20054;-83
2021/01/10 12:34:06;;;;;;;16.55;13.00;;;3.50;96.30;;;;;;4975615;28;20390;-84
2021/01/10 12:36:34;;;;;;;24.58;17.95;;;3.50;96.30;;;;;;4987704;28;20042;-83
2021/01/10 12:39:00;;;;;;;18.92;13.82;;;3.50;96.50;;;;;;4997743;28;20049;-83
2021/01/10 12:41:28;;;;;;;23.50;16.88;;;3.60;96.30;;;;;;4970792;28;20053;-82
2021/01/10 12:44:00;;;;;;;23.80;17.55;;;3.60;96.60;;;;;;4990236;28;20038;-82
2021/01/10 12:46:30;;;;;;;22.60;18.05;;;3.60;96.80;;;;;;4970293;28;20145;-82
2021/01/10 12:48:58;;;;;;;23.67;18.33;;;3.60;97.10;;;;;;4971351;28;20560;-83
2021/01/10 12:51:26;;;;;;;18.50;15.18;;;3.70;96.80;;;;;;5006519;28;20076;-82